createdAt,value
2023-03-04T00:00:33.420Z,33.19
2023-03-04T00:03:01.263Z,33.25
2023-03-04T00:05:31.112Z,33.35
2023-03-04T00:08:00.232Z,33.89
2023-03-04T00:10:28.079Z,33.73
2023-03-04T00:12:56.000Z,32.74
2023-03-04T00:15:23.922Z,32.83
2023-03-04T00:17:51.674Z,33.00
2023-03-04T00:20:19.495Z,32.83
2023-03-04T00:22:48.069Z,32.50
2023-03-04T00:25:17.704Z,32.51
2023-03-04T00:27:45.636Z,32.60
2023-03-04T00:30:13.971Z,33.23
2023-03-04T00:32:43.667Z,33.84
2023-03-04T00:35:11.641Z,33.27
2023-03-04T00:37:39.479Z,33.25
2023-03-04T00:40:08.134Z,33.62
2023-03-04T00:42:37.358Z,32.97
2023-03-04T00:45:06.716Z,33.98
2023-03-04T00:47:34.540Z,32.72
2023-03-04T00:50:02.741Z,32.47
2023-03-04T00:52:30.517Z,32.03
2023-03-04T00:54:58.335Z,32.93
2023-03-04T00:57:26.153Z,33.05
2023-03-04T00:59:55.314Z,32.56
2023-03-04T01:02:23.172Z,32.25
2023-03-04T01:04:51.066Z,31.93
2023-03-04T01:07:18.876Z,32.59
2023-03-04T01:09:46.667Z,32.11
2023-03-04T01:12:14.380Z,31.81
2023-03-04T01:14:42.216Z,33.14
2023-03-04T01:17:12.185Z,32.63
2023-03-04T01:19:40.079Z,32.05
2023-03-04T01:22:07.901Z,32.71
2023-03-04T01:24:36.580Z,32.63
2023-03-04T01:27:04.438Z,31.75
2023-03-04T01:29:32.233Z,32.16
2023-03-04T01:32:00.141Z,31.80
2023-03-04T01:34:29.346Z,32.16
2023-03-04T01:36:58.289Z,31.77
2023-03-04T01:39:26.153Z,32.44
2023-03-04T01:41:53.956Z,32.84
2023-03-04T01:44:21.794Z,32.74
2023-03-04T01:46:52.618Z,32.83
2023-03-04T01:49:21.453Z,31.97
2023-03-04T01:51:53.430Z,32.15
2023-03-04T01:54:23.453Z,32.97
2023-03-04T01:56:53.405Z,33.07
2023-03-04T01:59:23.138Z,32.64
2023-03-04T02:01:54.389Z,32.60
2023-03-04T02:04:25.246Z,33.68
2023-03-04T02:06:56.424Z,33.14
2023-03-04T02:09:24.676Z,33.09
2023-03-04T02:11:53.759Z,32.14
2023-03-04T02:14:22.988Z,32.00
2023-03-04T02:16:51.282Z,32.13
2023-03-04T02:19:31.847Z,32.70
2023-03-04T02:22:01.099Z,32.25
2023-03-04T02:24:35.588Z,33.63
2023-03-04T02:27:05.011Z,32.87
2023-03-04T02:29:32.983Z,33.20
2023-03-04T02:32:00.848Z,33.29
2023-03-04T02:34:30.933Z,32.87
2023-03-04T02:36:59.188Z,34.26
2023-03-04T02:39:32.590Z,32.69
2023-03-04T02:42:01.261Z,32.71
2023-03-04T02:44:34.660Z,32.48
2023-03-04T02:47:03.327Z,31.23
2023-03-04T02:49:32.838Z,33.26
2023-03-04T02:52:03.153Z,32.85
2023-03-04T02:54:32.252Z,32.54
2023-03-04T02:57:03.324Z,32.56
2023-03-04T02:59:36.116Z,32.07
2023-03-04T03:02:05.094Z,32.32
2023-03-04T03:04:34.437Z,32.73
2023-03-04T03:07:02.231Z,33.54
2023-03-04T03:09:30.641Z,33.86
2023-03-04T03:11:58.495Z,33.25
2023-03-04T03:14:26.340Z,32.53
2023-03-04T03:16:55.588Z,32.41
2023-03-04T03:19:23.340Z,32.71
2023-03-04T03:21:51.894Z,33.08
2023-03-04T03:24:20.188Z,32.31
2023-03-04T03:26:47.964Z,32.18
2023-03-04T03:29:15.829Z,32.24
2023-03-04T03:31:43.691Z,32.07
2023-03-04T03:34:12.859Z,33.60
2023-03-04T03:36:40.784Z,32.47
2023-03-04T03:39:08.554Z,32.75
2023-03-04T03:41:36.304Z,32.80
2023-03-04T03:44:04.118Z,33.29
2023-03-04T03:46:31.912Z,33.95
2023-03-04T03:48:59.681Z,32.83
2023-03-04T03:51:28.851Z,33.70
2023-03-04T03:53:56.612Z,33.14
2023-03-04T03:56:24.414Z,33.12
2023-03-04T03:58:52.221Z,34.01
2023-03-04T04:01:19.968Z,33.24
2023-03-04T04:03:47.822Z,32.62
2023-03-04T04:06:15.579Z,32.35
2023-03-04T04:08:44.681Z,32.81
2023-03-04T04:11:13.122Z,32.87
2023-03-04T04:13:40.855Z,32.72
2023-03-04T04:16:10.553Z,33.31
2023-03-04T04:18:38.649Z,33.14
2023-03-04T04:21:07.474Z,33.34
2023-03-04T04:23:35.439Z,33.27
2023-03-04T04:26:04.684Z,33.35
2023-03-04T04:28:32.428Z,33.48
2023-03-04T04:31:00.292Z,34.46
2023-03-04T04:33:28.044Z,34.43
2023-03-04T04:35:55.821Z,33.34
2023-03-04T04:38:24.658Z,33.71
2023-03-04T04:40:52.474Z,33.65
2023-03-04T04:43:21.593Z,33.05
2023-03-04T04:45:49.397Z,33.90
2023-03-04T04:48:17.173Z,33.94
2023-03-04T04:50:44.991Z,33.31
2023-03-04T04:53:13.437Z,33.81
2023-03-04T04:55:41.210Z,33.73
2023-03-04T04:58:08.934Z,34.58
2023-03-04T05:00:38.055Z,33.45
2023-03-04T05:03:05.854Z,32.55
2023-03-04T05:05:33.628Z,33.15
2023-03-04T05:08:01.491Z,34.31
2023-03-04T05:10:29.220Z,33.76
2023-03-04T05:12:56.958Z,33.38
2023-03-04T05:15:24.807Z,34.29
2023-03-04T05:17:53.949Z,33.93
2023-03-04T05:20:23.755Z,34.48
2023-03-04T05:22:52.112Z,34.00
2023-03-04T05:25:19.858Z,34.33
2023-03-04T05:27:47.609Z,33.58
2023-03-04T05:30:15.551Z,34.27
2023-03-04T05:32:43.458Z,35.08
2023-03-04T05:35:12.577Z,33.21
2023-03-04T05:37:40.452Z,33.76
2023-03-04T05:40:10.301Z,34.41
2023-03-04T05:42:38.088Z,34.73
2023-03-04T05:45:06.828Z,34.40
2023-03-04T05:47:34.591Z,34.32
2023-03-04T05:50:02.397Z,34.62
2023-03-04T05:52:31.486Z,34.26
2023-03-04T05:54:59.355Z,34.85
2023-03-04T05:57:27.140Z,34.24
2023-03-04T05:59:54.910Z,34.78
2023-03-04T06:02:22.696Z,34.60
2023-03-04T06:04:50.545Z,34.57
2023-03-04T06:07:18.388Z,34.17
2023-03-04T06:09:48.567Z,33.80
2023-03-04T06:12:16.372Z,33.61
2023-03-04T06:14:44.220Z,35.10
2023-03-04T06:17:12.091Z,34.65
2023-03-04T06:19:41.733Z,35.21
2023-03-04T06:22:10.701Z,35.38
2023-03-04T06:24:38.567Z,35.43
2023-03-04T06:27:08.045Z,34.26
2023-03-04T06:29:35.816Z,34.74
2023-03-04T06:32:03.628Z,35.41
2023-03-04T06:34:33.723Z,34.33
2023-03-04T06:37:01.528Z,34.26
2023-03-04T06:39:29.296Z,34.79
2023-03-04T06:41:57.070Z,35.17
2023-03-04T06:44:26.270Z,35.37
2023-03-04T06:46:54.105Z,34.79
2023-03-04T06:49:21.904Z,34.97
2023-03-04T06:51:49.778Z,34.73
2023-03-04T06:54:17.547Z,34.62
2023-03-04T06:56:45.396Z,35.86
2023-03-04T06:59:13.194Z,35.12
2023-03-04T07:01:42.316Z,35.87
2023-03-04T07:04:10.137Z,34.74
2023-03-04T07:06:37.983Z,34.84
2023-03-04T07:09:05.771Z,34.89
2023-03-04T07:11:33.883Z,35.56
2023-03-04T07:14:01.638Z,34.90
2023-03-04T07:16:29.616Z,34.12
2023-03-04T07:18:58.773Z,35.20
2023-03-04T07:21:26.717Z,34.89
2023-03-04T07:23:54.471Z,34.94
2023-03-04T07:26:22.322Z,35.99
2023-03-04T07:28:52.169Z,34.78
2023-03-04T07:31:24.315Z,35.00
2023-03-04T07:33:53.124Z,34.69
2023-03-04T07:36:22.386Z,36.59
2023-03-04T07:38:51.367Z,36.17
2023-03-04T07:41:19.971Z,36.05
2023-03-04T07:43:47.758Z,35.54
2023-03-04T07:46:15.999Z,35.89
2023-03-04T07:48:44.126Z,37.97
2023-03-04T07:51:13.390Z,37.51
2023-03-04T07:53:45.516Z,36.76
2023-03-04T07:56:16.063Z,35.23
2023-03-04T07:58:44.219Z,35.51
2023-03-04T08:01:13.127Z,37.17
2023-03-04T08:03:41.679Z,37.14
2023-03-04T08:06:11.065Z,36.18
2023-03-04T08:08:39.486Z,35.11
2023-03-04T08:11:10.344Z,35.62
2023-03-04T08:13:38.270Z,35.93
2023-03-04T08:16:07.381Z,34.62
2023-03-04T08:18:35.411Z,35.68
2023-03-04T08:21:03.219Z,34.44
2023-03-04T08:23:30.980Z,35.21
2023-03-04T08:25:58.897Z,34.20
2023-03-04T08:28:28.070Z,35.44
2023-03-04T08:30:56.697Z,34.09
2023-03-04T08:33:24.517Z,34.86
2023-03-04T08:35:52.378Z,33.61
2023-03-04T08:38:20.265Z,32.75
2023-03-04T08:40:53.590Z,33.04
2023-03-04T08:43:21.930Z,32.55
2023-03-04T08:45:51.274Z,32.43
2023-03-04T08:48:19.322Z,31.94
2023-03-04T08:50:47.888Z,32.42
2023-03-04T08:53:16.462Z,33.17
2023-03-04T08:55:45.150Z,32.67
2023-03-04T08:58:13.626Z,32.99
2023-03-04T09:00:44.019Z,34.04
2023-03-04T09:03:13.814Z,34.86
2023-03-04T09:05:42.027Z,34.19
2023-03-04T09:08:09.783Z,34.83
2023-03-04T09:10:37.607Z,33.95
2023-03-04T09:13:06.241Z,33.62
2023-03-04T09:15:35.595Z,34.12
2023-03-04T09:18:04.128Z,34.39
2023-03-04T09:20:33.760Z,35.31
2023-03-04T09:23:01.631Z,35.08
2023-03-04T09:25:29.551Z,34.96
2023-03-04T09:27:57.348Z,35.33
2023-03-04T09:30:25.944Z,34.99
2023-03-04T09:32:54.434Z,34.33
2023-03-04T09:35:22.260Z,35.46
2023-03-04T09:37:52.841Z,36.68
2023-03-04T09:40:22.714Z,35.26
2023-03-04T09:42:54.928Z,35.02
2023-03-04T09:45:28.125Z,35.08
2023-03-04T09:47:57.396Z,34.40
2023-03-04T09:50:25.339Z,35.38
2023-03-04T09:53:08.663Z,36.83
2023-03-04T09:55:40.486Z,35.39
2023-03-04T09:58:17.678Z,34.38
2023-03-04T10:00:48.002Z,34.60
2023-03-04T10:03:19.517Z,35.63
2023-03-04T10:05:54.728Z,36.77
2023-03-04T10:08:35.492Z,37.24
2023-03-04T10:11:07.571Z,35.63
2023-03-04T10:13:39.863Z,35.95
2023-03-04T10:16:13.545Z,36.92
2023-03-04T10:18:48.068Z,36.19
2023-03-04T10:21:23.477Z,37.10
2023-03-04T10:23:54.268Z,35.66
2023-03-04T10:26:23.487Z,35.39
2023-03-04T10:28:51.445Z,34.71
2023-03-04T10:31:29.655Z,34.16
2023-03-04T10:33:57.491Z,34.26
2023-03-04T10:36:39.402Z,33.58
2023-03-04T10:39:11.716Z,35.00
2023-03-04T10:41:44.578Z,36.06
2023-03-04T10:44:18.007Z,36.49
2023-03-04T10:46:47.852Z,35.50
2023-03-04T10:49:17.623Z,35.70
2023-03-04T10:51:46.898Z,38.35
2023-03-04T10:54:25.509Z,37.41
2023-03-04T10:57:02.551Z,38.30
2023-03-04T10:59:43.833Z,38.28
2023-03-04T11:02:24.180Z,38.16
2023-03-04T11:04:58.492Z,38.70
2023-03-04T11:07:28.669Z,38.42
2023-03-04T11:10:09.111Z,37.19
2023-03-04T11:12:36.855Z,37.93
2023-03-04T11:15:17.697Z,36.90
2023-03-04T11:17:49.551Z,37.39
2023-03-04T11:20:26.377Z,36.86
2023-03-04T11:22:57.937Z,37.17
2023-03-04T11:25:29.765Z,38.25
2023-03-04T11:28:02.449Z,35.74
2023-03-04T11:30:35.665Z,35.52
2023-03-04T11:33:13.509Z,36.89
2023-03-04T11:35:49.936Z,38.50
2023-03-04T11:38:20.206Z,37.09
2023-03-04T11:40:53.957Z,38.42
2023-03-04T11:43:29.753Z,37.16
2023-03-04T11:46:42.660Z,38.75
2023-03-04T11:49:48.757Z,38.32
2023-03-04T11:52:26.811Z,36.73
2023-03-04T11:55:07.473Z,38.57
2023-03-04T11:57:49.026Z,39.66
2023-03-04T12:00:35.795Z,38.22
2023-03-04T12:03:25.640Z,38.61
2023-03-04T12:06:01.788Z,38.60
2023-03-04T12:08:39.195Z,37.21
2023-03-04T12:11:09.618Z,37.71
2023-03-04T12:14:10.156Z,38.18
2023-03-04T12:17:06.354Z,36.97
2023-03-04T12:19:51.841Z,37.67
2023-03-04T12:22:35.341Z,38.35
2023-03-04T12:25:39.852Z,39.09
2023-03-04T12:28:27.761Z,36.36
2023-03-04T12:31:36.055Z,36.75
2023-03-04T12:34:29.129Z,36.92
2023-03-04T12:37:08.514Z,37.05
2023-03-04T12:39:42.670Z,36.89
2023-03-04T12:42:22.529Z,35.80
2023-03-04T12:44:57.970Z,37.48
2023-03-04T12:47:38.048Z,37.35
2023-03-04T12:50:38.093Z,38.84
2023-03-04T12:53:17.713Z,39.85
2023-03-04T12:55:47.355Z,39.37
2023-03-04T12:58:19.028Z,40.83
2023-03-04T13:00:58.474Z,39.37
2023-03-04T13:03:38.813Z,38.43
2023-03-04T13:06:16.182Z,39.65
2023-03-04T13:08:57.041Z,38.73
2023-03-04T13:12:01.152Z,38.57
2023-03-04T13:14:33.555Z,39.75
2023-03-04T13:17:23.935Z,38.21
2023-03-04T13:19:59.599Z,40.24
2023-03-04T13:22:29.645Z,40.33
2023-03-04T13:24:58.771Z,38.32
2023-03-04T13:27:48.488Z,38.14
2023-03-04T13:31:02.154Z,37.26
2023-03-04T13:33:53.102Z,38.36
2023-03-04T13:36:56.501Z,36.33
2023-03-04T13:39:34.806Z,37.38
2023-03-04T13:42:03.794Z,37.39
2023-03-04T13:44:57.149Z,37.75
2023-03-04T13:47:35.489Z,37.64
2023-03-04T13:50:48.839Z,37.33
2023-03-04T13:53:31.985Z,38.84
2023-03-04T13:56:07.692Z,37.60
2023-03-04T13:58:36.540Z,38.53
2023-03-04T14:01:06.893Z,38.12
2023-03-04T14:03:36.589Z,37.46
2023-03-04T14:06:17.718Z,37.74
2023-03-04T14:08:45.977Z,36.09
2023-03-04T14:11:20.108Z,38.15
2023-03-04T14:13:48.016Z,35.87
2023-03-04T14:16:21.374Z,36.49
2023-03-04T14:18:59.082Z,36.14
2023-03-04T14:21:27.032Z,35.27
2023-03-04T14:24:02.679Z,36.15
2023-03-04T14:26:31.857Z,36.72
2023-03-04T14:28:59.807Z,37.52
2023-03-04T14:31:30.215Z,36.67
2023-03-04T14:34:02.121Z,37.93
2023-03-04T14:36:33.669Z,38.79
2023-03-04T14:39:05.762Z,38.00
2023-03-04T14:41:37.953Z,36.75
2023-03-04T14:44:10.738Z,37.59
2023-03-04T14:46:44.187Z,38.35
2023-03-04T14:49:15.511Z,37.98
2023-03-04T14:51:47.889Z,37.84
2023-03-04T14:54:35.518Z,38.10
2023-03-04T14:57:23.901Z,38.15
2023-03-04T14:59:52.486Z,37.31
2023-03-04T15:02:31.258Z,36.31
2023-03-04T15:05:01.706Z,37.19
2023-03-04T15:07:35.832Z,35.72
2023-03-04T15:10:08.072Z,35.57
2023-03-04T15:12:38.636Z,36.33
2023-03-04T15:15:34.825Z,36.23
2023-03-04T15:18:03.976Z,35.96
2023-03-04T15:20:33.379Z,34.13
2023-03-04T15:23:07.149Z,35.93
2023-03-04T15:25:35.701Z,34.85
2023-03-04T15:28:07.571Z,34.81
2023-03-04T15:30:35.775Z,35.54
2023-03-04T15:33:03.650Z,33.70
2023-03-04T15:35:33.627Z,35.93
2023-03-04T15:38:01.889Z,34.82
2023-03-04T15:40:33.173Z,33.80
2023-03-04T15:43:04.754Z,35.23
2023-03-04T15:45:36.991Z,35.59
2023-03-04T15:48:07.996Z,34.62
2023-03-04T15:50:38.476Z,34.30
2023-03-04T15:53:09.524Z,35.55
2023-03-04T15:55:38.349Z,34.53
2023-03-04T15:58:07.472Z,33.38
2023-03-04T16:00:37.263Z,33.17
2023-03-04T16:03:05.432Z,33.83
2023-03-04T16:05:36.972Z,33.21
2023-03-04T16:08:05.127Z,33.08
2023-03-04T16:10:33.846Z,33.40
2023-03-04T16:13:01.573Z,33.15
2023-03-04T16:15:31.189Z,33.27
2023-03-04T16:18:00.510Z,33.64
2023-03-04T16:20:30.940Z,32.93
2023-03-04T16:23:00.968Z,33.95
2023-03-04T16:25:30.184Z,33.41
2023-03-04T16:27:59.071Z,33.68
2023-03-04T16:30:27.955Z,32.64
2023-03-04T16:32:55.874Z,32.73
2023-03-04T16:35:27.680Z,34.02
2023-03-04T16:37:55.922Z,32.63
2023-03-04T16:40:27.526Z,34.28
2023-03-04T16:42:55.378Z,33.79
2023-03-04T16:45:25.654Z,33.78
2023-03-04T16:47:54.611Z,33.81
2023-03-04T16:50:27.078Z,33.04
2023-03-04T16:52:57.251Z,33.28
2023-03-04T16:55:27.047Z,33.15
2023-03-04T16:57:57.724Z,32.88
2023-03-04T17:00:28.059Z,32.19
2023-03-04T17:02:58.024Z,32.08
2023-03-04T17:05:28.450Z,32.27
2023-03-04T17:07:57.677Z,32.20
2023-03-04T17:10:26.116Z,32.16
2023-03-04T17:12:54.116Z,32.71
2023-03-04T17:15:22.277Z,33.44
2023-03-04T17:17:52.176Z,33.85
2023-03-04T17:20:20.402Z,34.58
2023-03-04T17:22:48.362Z,34.06
2023-03-04T17:25:17.558Z,34.42
2023-03-04T17:27:45.667Z,33.98
2023-03-04T17:30:14.429Z,33.61
2023-03-04T17:32:42.266Z,33.70
2023-03-04T17:35:11.603Z,33.50
2023-03-04T17:37:39.654Z,33.29
2023-03-04T17:40:11.195Z,32.98
2023-03-04T17:42:40.429Z,33.39
2023-03-04T17:45:09.926Z,32.39
2023-03-04T17:47:38.103Z,31.99
2023-03-04T17:50:07.487Z,32.47
2023-03-04T17:52:35.299Z,33.35
2023-03-04T17:55:03.051Z,32.62
2023-03-04T17:57:30.856Z,34.72
2023-03-04T18:00:00.022Z,33.56
2023-03-04T18:02:27.916Z,34.10
2023-03-04T18:04:55.769Z,33.78
2023-03-04T18:07:23.617Z,34.14
2023-03-04T18:09:51.532Z,34.58
2023-03-04T18:12:19.580Z,35.26
2023-03-04T18:14:47.391Z,34.65
2023-03-04T18:17:16.627Z,35.04
2023-03-04T18:19:44.376Z,34.22
2023-03-04T18:22:12.687Z,35.05
2023-03-04T18:24:41.191Z,33.05
2023-03-04T18:27:09.078Z,34.09
2023-03-04T18:29:37.163Z,33.19
2023-03-04T18:32:05.575Z,33.27
2023-03-04T18:34:34.800Z,33.34
2023-03-04T18:37:02.667Z,34.07
2023-03-04T18:39:30.534Z,33.16
2023-03-04T18:41:58.334Z,33.98
2023-03-04T18:44:26.156Z,34.11
2023-03-04T18:46:56.225Z,33.88
2023-03-04T18:49:24.618Z,34.00
2023-03-04T18:51:54.401Z,34.26
2023-03-04T18:54:22.535Z,34.05
2023-03-04T18:56:53.148Z,33.41
2023-03-04T18:59:24.299Z,33.66
2023-03-04T19:01:55.194Z,33.98
2023-03-04T19:04:26.939Z,35.08
2023-03-04T19:06:56.187Z,33.61
2023-03-04T19:09:24.083Z,33.73
2023-03-04T19:11:51.857Z,33.43
2023-03-04T19:14:19.655Z,34.37
2023-03-04T19:16:47.481Z,34.63
2023-03-04T19:19:15.644Z,34.41
2023-03-04T19:21:43.403Z,34.70
2023-03-04T19:24:12.582Z,34.07
2023-03-04T19:26:40.895Z,34.29
2023-03-04T19:29:08.863Z,34.72
2023-03-04T19:31:41.373Z,34.42
2023-03-04T19:34:09.602Z,35.74
2023-03-04T19:36:37.411Z,34.97
2023-03-04T19:39:06.065Z,35.96
2023-03-04T19:41:35.341Z,34.84
2023-03-04T19:44:03.312Z,33.67
2023-03-04T19:46:32.255Z,34.25
2023-03-04T19:49:02.098Z,33.52
2023-03-04T19:51:32.105Z,33.42
2023-03-04T19:54:01.021Z,34.11
2023-03-04T19:56:29.584Z,33.56
2023-03-04T19:58:59.304Z,33.88
2023-03-04T20:01:30.152Z,34.17
2023-03-04T20:03:59.670Z,34.09
2023-03-04T20:06:28.800Z,33.54
2023-03-04T20:08:57.949Z,32.71
2023-03-04T20:11:26.089Z,33.70
2023-03-04T20:13:55.020Z,33.96
2023-03-04T20:16:24.167Z,33.36
2023-03-04T20:18:52.049Z,33.25
2023-03-04T20:21:20.066Z,33.32
2023-03-04T20:23:47.903Z,33.67
2023-03-04T20:26:15.686Z,32.67
2023-03-04T20:28:50.428Z,32.48
2023-03-04T20:31:21.708Z,33.23
2023-03-04T20:33:51.908Z,33.35
2023-03-04T20:36:21.300Z,33.67
2023-03-04T20:38:50.352Z,33.76
2023-03-04T20:41:20.445Z,33.06
2023-03-04T20:43:48.254Z,34.08
2023-03-04T20:46:32.233Z,34.93
2023-03-04T20:49:03.036Z,34.95
2023-03-04T20:51:32.316Z,35.85
2023-03-04T20:54:00.862Z,35.71
2023-03-04T20:56:28.945Z,35.67
2023-03-04T20:58:57.885Z,35.85
2023-03-04T21:01:26.692Z,34.88
2023-03-04T21:03:54.524Z,35.58
2023-03-04T21:06:25.028Z,34.43
2023-03-04T21:08:53.198Z,35.14
2023-03-04T21:11:23.332Z,34.98
2023-03-04T21:13:55.920Z,35.85
2023-03-04T21:16:25.849Z,35.29
2023-03-04T21:18:54.228Z,35.14
2023-03-04T21:21:25.859Z,34.84
2023-03-04T21:23:55.359Z,35.29
2023-03-04T21:26:24.012Z,34.52
2023-03-04T21:28:53.286Z,34.57
2023-03-04T21:31:23.409Z,34.27
2023-03-04T21:33:52.524Z,35.05
2023-03-04T21:36:20.386Z,33.74
2023-03-04T21:38:50.193Z,34.44
2023-03-04T21:41:19.925Z,34.94
2023-03-04T21:43:48.078Z,34.18
2023-03-04T21:46:17.944Z,33.32
2023-03-04T21:48:47.732Z,34.12
2023-03-04T21:51:17.262Z,34.38
2023-03-04T21:53:45.127Z,33.86
2023-03-04T21:56:14.995Z,33.78
2023-03-04T21:58:42.897Z,33.21
2023-03-04T22:01:11.845Z,33.25
2023-03-04T22:03:50.163Z,32.35
2023-03-04T22:06:21.785Z,32.85
2023-03-04T22:08:50.483Z,33.33
2023-03-04T22:11:18.754Z,34.22
2023-03-04T22:13:46.572Z,33.93
2023-03-04T22:16:14.499Z,31.95
2023-03-04T22:18:42.370Z,32.09
2023-03-04T22:21:13.556Z,31.55
2023-03-04T22:23:42.176Z,31.36
2023-03-04T22:26:13.090Z,32.13
2023-03-04T22:28:41.615Z,32.07
2023-03-04T22:31:21.329Z,31.46
2023-03-04T22:33:49.229Z,31.47
2023-03-04T22:36:18.323Z,30.60
2023-03-04T22:38:46.187Z,30.91
2023-03-04T22:41:15.296Z,30.70
2023-03-04T22:43:43.637Z,30.01
2023-03-04T22:46:16.090Z,30.44
2023-03-04T22:48:44.260Z,30.52
2023-03-04T22:51:12.619Z,30.57
2023-03-04T22:53:43.436Z,30.14
2023-03-04T22:56:12.216Z,30.14
2023-03-04T22:58:40.075Z,29.72
2023-03-04T23:01:09.101Z,29.32
2023-03-04T23:03:37.741Z,29.40
2023-03-04T23:06:08.578Z,29.77
2023-03-04T23:08:38.336Z,29.65
2023-03-04T23:11:11.725Z,29.81
2023-03-04T23:13:40.460Z,29.82
2023-03-04T23:16:10.236Z,31.51
2023-03-04T23:18:39.221Z,31.38
2023-03-04T23:21:07.684Z,29.96
2023-03-04T23:23:35.604Z,29.94
2023-03-04T23:26:04.154Z,30.33
2023-03-04T23:28:33.469Z,30.20
2023-03-04T23:31:01.289Z,30.18
2023-03-04T23:33:29.039Z,30.85
2023-03-04T23:35:56.871Z,29.97
2023-03-04T23:38:24.859Z,30.85
2023-03-04T23:40:52.625Z,31.05
2023-03-04T23:43:20.381Z,31.36
2023-03-04T23:45:49.544Z,31.59
2023-03-04T23:48:17.356Z,30.25
2023-03-04T23:50:51.852Z,30.97
2023-03-04T23:53:19.781Z,31.32
2023-03-04T23:55:47.607Z,31.75
2023-03-04T23:58:15.670Z,31.90
